Time;durP1;ratioP1;P1;durP2;ratioP2;P2;SDS_P1;SDS_P2;PMS_P1;PMS_P2;Temp;Humidity;BMP_temperature;BMP_pressure;BME280_temperature;BME280_humidity;BME280_pressure;Samples;Min_cycle;Max_cycle;Signal;HPM_P1;HPM_P2
2022/05/10 00:00:56;;;;;;;9.85;3.70;;;;;;;;;;5063211;28;20128;-93
2022/05/10 00:03:35;;;;;;;8.82;3.47;;;;;;;;;;5075563;28;20108;-92
2022/05/10 00:06:04;;;;;;;10.25;3.88;;;;;;;;;;5069616;28;20045;-93
2022/05/10 00:08:33;;;;;;;9.88;3.97;;;;;;;;;;5058232;28;20084;-92
2022/05/10 00:11:03;;;;;;;6.65;3.22;;;;;;;;;;5062640;28;20060;-92
2022/05/10 00:13:30;;;;;;;8.30;3.30;;;;;;;;;;5065854;28;20052;-92
2022/05/10 00:16:00;;;;;;;10.07;3.83;;;;;;;;;;5058002;28;20079;-93
2022/05/10 00:18:29;;;;;;;8.90;4.22;;;;;;;;;;5057597;28;20385;-92
2022/05/10 00:20:56;;;;;;;8.20;4.22;;;;;;;;;;5058275;28;20056;-92
2022/05/10 00:23:24;;;;;;;9.90;3.80;;;;;;;;;;5058790;28;20094;-92
2022/05/10 00:25:51;;;;;;;7.07;3.53;;;;;;;;;;5038421;28;20095;-92
2022/05/10 00:28:18;;;;;;;10.15;3.03;;;;;;;;;;5038568;28;20069;-92
2022/05/10 00:30:45;;;;;;;7.10;3.65;;;;;;;;;;5053136;28;20068;-93
2022/05/10 00:33:20;;;;;;;7.53;3.80;;;;;;;;;;5059588;28;20076;-93
2022/05/10 00:35:47;;;;;;;6.85;3.55;;;;;;;;;;5059581;28;20052;-93
2022/05/10 00:38:15;;;;;;;10.68;3.72;;;;;;;;;;5059623;28;20102;-93
2022/05/10 00:40:43;;;;;;;10.35;3.90;;;;;;;;;;5064968;28;20048;-93
2022/05/10 00:43:25;;;;;;;8.18;3.90;;;;;;;;;;5075468;28;20459;-93
2022/05/10 00:45:56;;;;;;;17.40;4.15;;;;;;;;;;5075472;28;20071;-92
2022/05/10 00:48:31;;;;;;;11.23;3.35;;;;;;;;;;5063586;28;20476;-91
2022/05/10 00:51:02;;;;;;;9.10;3.55;;;;;;;;;;5057847;28;20068;-91
2022/05/10 00:53:48;;;;;;;12.30;3.63;;;;;;;;;;5058015;28;20075;-92
2022/05/10 00:56:21;;;;;;;8.23;3.47;;;;;;;;;;5057161;28;20121;-92
2022/05/10 00:59:07;;;;;;;14.15;3.70;;;;;;;;;;5071552;28;20044;-91
2022/05/10 01:01:35;;;;;;;10.48;3.72;;;;;;;;;;5037564;28;20077;-91
2022/05/10 01:04:14;;;;;;;6.95;3.10;;;;;;;;;;5065168;28;20052;-93
2022/05/10 01:07:11;;;;;;;9.10;3.95;;;;;;;;;;5057786;28;20041;-92
2022/05/10 01:09:52;;;;;;;9.82;3.78;;;;;;;;;;5045730;28;20127;-92
2022/05/10 01:12:24;;;;;;;10.55;3.30;;;;;;;;;;5057397;28;20150;-92
2022/05/10 01:14:54;;;;;;;9.48;3.35;;;;;;;;;;5061149;23;20111;-93
2022/05/10 01:17:22;;;;;;;9.85;3.47;;;;;;;;;;5038416;28;20045;-93
2022/05/10 01:19:51;;;;;;;5.38;3.40;;;;;;;;;;5054770;28;20347;-93
2022/05/10 01:22:29;;;;;;;12.43;4.20;;;;;;;;;;5054067;28;20498;-93
2022/05/10 01:24:59;;;;;;;9.23;3.08;;;;;;;;;;5047405;28;20478;-92
2022/05/10 01:27:38;;;;;;;12.68;3.67;;;;;;;;;;5037117;28;20103;-92
2022/05/10 01:30:05;;;;;;;10.23;3.80;;;;;;;;;;5037828;28;20122;-93
2022/05/10 01:35:43;;;;;;;16.20;4.32;;;;;;;;;;5055058;28;20128;-93
2022/05/10 01:38:25;;;;;;;6.95;3.80;;;;;;;;;;5039836;28;20107;-93
2022/05/10 01:40:54;;;;;;;9.10;3.47;;;;;;;;;;5053768;28;20041;-93
2022/05/10 01:43:30;;;;;;;11.27;4.05;;;;;;;;;;5054210;28;20049;-92
2022/05/10 01:46:08;;;;;;;8.43;3.97;;;;;;;;;;5037287;28;20414;-92
2022/05/10 01:48:37;;;;;;;10.52;3.75;;;;;;;;;;5037035;28;20049;-94
2022/05/10 01:51:13;;;;;;;10.55;4.93;;;;;;;;;;5036824;28;20049;-92
2022/05/10 01:53:40;;;;;;;10.45;3.38;;;;;;;;;;5036966;28;20114;-93
2022/05/10 01:56:16;;;;;;;9.88;3.13;;;;;;;;;;5041168;28;20440;-93
2022/05/10 01:58:43;;;;;;;;;;;;;;;;;;5044569;28;20041;-93
2022/05/10 02:01:36;;;;;;;9.02;3.88;;;;;;;;;;5059667;28;19920;-93
2022/05/10 02:04:09;;;;;;;9.00;3.80;;;;;;;;;;5059983;28;20071;-93
2022/05/10 02:06:58;;;;;;;7.28;4.18;;;;;;;;;;5040074;28;20033;-93
2022/05/10 02:09:44;;;;;;;6.65;3.40;;;;;;;;;;5025236;28;20080;-93
2022/05/10 02:12:14;;;;;;;12.95;4.28;;;;;;;;;;5016812;28;20123;-93
2022/05/10 02:14:47;;;;;;;14.05;4.38;;;;;;;;;;5016731;28;20049;-93
2022/05/10 02:17:16;;;;;;;9.77;4.13;;;;;;;;;;5016885;28;20417;-92
2022/05/10 02:19:50;;;;;;;12.55;3.92;;;;;;;;;;5016610;28;20064;-93
2022/05/10 02:22:23;;;;;;;7.68;3.50;;;;;;;;;;5016646;28;20050;-93
2022/05/10 02:24:58;;;;;;;5.20;3.42;;;;;;;;;;5016090;28;20061;-93
2022/05/10 02:28:00;;;;;;;11.82;4.25;;;;;;;;;;5032342;28;20048;-85
2022/05/10 02:30:29;;;;;;;13.23;4.57;;;;;;;;;;4995701;28;20077;-93
2022/05/10 02:33:07;;;;;;;9.60;4.30;;;;;;;;;;5018908;28;20053;-92
2022/05/10 02:35:40;;;;;;;9.43;4.18;;;;;;;;;;5044431;28;20128;-93
2022/05/10 02:38:09;;;;;;;7.70;3.80;;;;;;;;;;5037465;28;20045;-93
2022/05/10 02:40:41;;;;;;;12.48;4.05;;;;;;;;;;5040425;28;20044;-93
2022/05/10 02:43:14;;;;;;;12.48;4.68;;;;;;;;;;5041060;28;20057;-93
2022/05/10 02:45:42;;;;;;;9.52;3.90;;;;;;;;;;5041940;28;20469;-93
2022/05/10 02:48:14;;;;;;;15.13;4.53;;;;;;;;;;5040991;28;20049;-94
2022/05/10 02:50:41;;;;;;;12.02;4.30;;;;;;;;;;5040803;28;20106;-93
2022/05/10 02:53:09;;;;;;;8.98;3.85;;;;;;;;;;5041137;28;20114;-94
2022/05/10 02:55:36;;;;;;;8.80;4.03;;;;;;;;;;5041774;28;20045;-93
2022/05/10 02:58:09;;;;;;;8.32;3.78;;;;;;;;;;5040611;28;20045;-93
2022/05/10 03:00:37;;;;;;;10.15;4.45;;;;;;;;;;5057745;28;20052;-93
2022/05/10 03:03:07;;;;;;;9.00;4.00;;;;;;;;;;5041033;28;20072;-93
2022/05/10 03:05:34;;;;;;;7.82;4.05;;;;;;;;;;5041601;28;20440;-93
2022/05/10 03:08:01;;;;;;;16.67;4.68;;;;;;;;;;5041079;28;20053;-92
2022/05/10 03:10:29;;;;;;;9.10;4.13;;;;;;;;;;5040085;28;20052;-94
2022/05/10 03:12:56;;;;;;;9.95;4.30;;;;;;;;;;5058373;28;20053;-93
2022/05/10 03:15:23;;;;;;;15.30;4.75;;;;;;;;;;5062292;28;20057;-93
2022/05/10 03:17:51;;;;;;;18.58;4.25;;;;;;;;;;5041306;28;20122;-93
2022/05/10 03:20:18;;;;;;;16.67;4.53;;;;;;;;;;5056956;28;20098;-93
2022/05/10 03:22:49;;;;;;;10.60;4.03;;;;;;;;;;5056771;28;20842;-93
2022/05/10 03:25:16;;;;;;;14.60;4.53;;;;;;;;;;5056538;28;20052;-93
2022/05/10 03:27:47;;;;;;;10.73;4.88;;;;;;;;;;5057262;28;20049;-93
2022/05/10 03:30:14;;;;;;;11.38;4.57;;;;;;;;;;5056268;28;20047;-93
2022/05/10 03:32:42;;;;;;;9.65;4.15;;;;;;;;;;5041513;28;20045;-94
2022/05/10 03:35:11;;;;;;;24.17;4.25;;;;;;;;;;5042215;28;20049;-93
2022/05/10 03:37:38;;;;;;;12.05;4.43;;;;;;;;;;5043429;28;20118;-93
2022/05/10 03:40:06;;;;;;;25.23;4.80;;;;;;;;;;5039691;28;20080;-92
2022/05/10 03:42:34;;;;;;;11.85;4.47;;;;;;;;;;5037752;28;20045;-91
2022/05/10 03:45:01;;;;;;;13.38;4.65;;;;;;;;;;5039703;28;20555;-93
2022/05/10 03:47:30;;;;;;;23.35;4.78;;;;;;;;;;5040303;28;20128;-93
2022/05/10 03:49:58;;;;;;;12.20;4.35;;;;;;;;;;5039575;28;20106;-92
2022/05/10 03:52:25;;;;;;;9.73;4.07;;;;;;;;;;5039447;28;20057;-92
2022/05/10 03:54:53;;;;;;;11.95;4.53;;;;;;;;;;5038675;28;20059;-92
2022/05/10 03:57:20;;;;;;;11.57;4.68;;;;;;;;;;5056518;28;20053;-91
2022/05/10 03:59:48;;;;;;;14.52;5.55;;;;;;;;;;5038555;28;20049;-92
2022/05/10 04:02:16;;;;;;;14.00;4.47;;;;;;;;;;5048439;28;20052;-92
2022/05/10 04:04:44;;;;;;;13.55;4.35;;;;;;;;;;5056100;28;20119;-92
2022/05/10 04:07:11;;;;;;;10.50;4.38;;;;;;;;;;5055767;28;20052;-92
2022/05/10 04:09:38;;;;;;;11.30;4.63;;;;;;;;;;5043040;28;20061;-93
2022/05/10 04:12:08;;;;;;;13.32;5.05;;;;;;;;;;5055729;28;20061;-92
2022/05/10 04:14:35;;;;;;;13.80;4.63;;;;;;;;;;5056400;28;20053;-93
2022/05/10 04:17:05;;;;;;;9.00;4.65;;;;;;;;;;5056622;28;20049;-93
2022/05/10 04:19:35;;;;;;;20.83;5.20;;;;;;;;;;5056458;28;20123;-92
2022/05/10 04:22:05;;;;;;;15.60;5.15;;;;;;;;;;5038867;28;20072;-92
2022/05/10 04:24:32;;;;;;;10.95;4.60;;;;;;;;;;5038964;28;20315;-91
2022/05/10 04:27:00;;;;;;;39.05;5.50;;;;;;;;;;5038405;28;20053;-91
2022/05/10 04:29:28;;;;;;;12.82;4.65;;;;;;;;;;5056742;28;20068;-92
2022/05/10 04:31:55;;;;;;;29.58;4.60;;;;;;;;;;5055561;28;20060;-93
2022/05/10 04:34:24;;;;;;;20.40;4.78;;;;;;;;;;5055392;28;20065;-92
2022/05/10 04:36:51;;;;;;;18.25;6.30;;;;;;;;;;5055829;28;20053;-93
2022/05/10 04:39:19;;;;;;;21.48;4.70;;;;;;;;;;5054923;28;20053;-93
2022/05/10 04:41:54;;;;;;;28.50;5.43;;;;;;;;;;5040524;28;20060;-92
2022/05/10 04:44:21;;;;;;;15.20;4.25;;;;;;;;;;5049352;28;20058;-93
2022/05/10 04:46:48;;;;;;;12.00;5.10;;;;;;;;;;5037795;28;20053;-92
2022/05/10 04:49:15;;;;;;;13.15;4.80;;;;;;;;;;5054523;28;20057;-92
2022/05/10 04:51:43;;;;;;;21.38;5.15;;;;;;;;;;5046097;28;20152;-94
2022/05/10 04:54:10;;;;;;;21.15;6.05;;;;;;;;;;5035121;28;20111;-93
2022/05/10 04:56:43;;;;;;;20.42;5.55;;;;;;;;;;5040674;28;20049;-94
2022/05/10 04:59:15;;;;;;;15.30;5.72;;;;;;;;;;5061228;28;20071;-95
2022/05/10 05:08:45;;;;;;;19.58;5.95;;;;;;;;;;5047800;28;20183;-95
2022/05/10 05:11:14;;;;;;;16.80;4.70;;;;;;;;;;5053363;28;20075;-91
2022/05/10 05:13:41;;;;;;;17.45;4.70;;;;;;;;;;5036302;28;20060;-92
2022/05/10 05:16:09;;;;;;;15.98;5.80;;;;;;;;;;5036929;28;20052;-92
2022/05/10 05:18:36;;;;;;;11.50;5.13;;;;;;;;;;5029233;28;20060;-90
2022/05/10 05:21:13;;;;;;;15.23;6.18;;;;;;;;;;5023006;28;20049;-92
2022/05/10 05:23:54;;;;;;;14.30;5.18;;;;;;;;;;5026143;28;20049;-91
2022/05/10 05:26:22;;;;;;;18.15;5.85;;;;;;;;;;5033360;28;20033;-92
2022/05/10 05:28:49;;;;;;;12.57;4.53;;;;;;;;;;5043017;28;20456;-92
2022/05/10 05:31:20;;;;;;;16.30;5.53;;;;;;;;;;5038936;28;20052;-91
2022/05/10 05:34:12;;;;;;;23.27;5.40;;;;;;;;;;5038478;28;20060;-93
2022/05/10 05:36:40;;;;;;;11.65;5.28;;;;;;;;;;5036998;28;20053;-91
2022/05/10 05:39:09;;;;;;;16.52;5.50;;;;;;;;;;5048683;28;20048;-90
2022/05/10 05:41:36;;;;;;;11.85;4.63;;;;;;;;;;5035124;28;20475;-93
2022/05/10 05:44:04;;;;;;;15.68;4.90;;;;;;;;;;5033759;28;20048;-91
2022/05/10 05:46:34;;;;;;;9.80;4.60;;;;;;;;;;5023488;28;20060;-92
2022/05/10 05:49:26;;;;;;;11.77;4.70;;;;;;;;;;5034637;28;20061;-93
2022/05/10 05:51:57;;;;;;;16.92;5.35;;;;;;;;;;5035050;28;20049;-92
2022/05/10 05:54:25;;;;;;;15.15;4.70;;;;;;;;;;5036062;28;20425;-92
2022/05/10 05:57:03;;;;;;;14.20;4.75;;;;;;;;;;5034796;28;20272;-92
2022/05/10 05:59:31;;;;;;;11.63;4.40;;;;;;;;;;5034621;28;20033;-92
2022/05/10 06:02:10;;;;;;;16.70;4.90;;;;;;;;;;5035455;28;20126;-92
2022/05/10 06:04:37;;;;;;;18.00;4.60;;;;;;;;;;5034946;28;20045;-93
2022/05/10 06:07:07;;;;;;;17.48;5.32;;;;;;;;;;5035135;28;20064;-92
2022/05/10 06:09:34;;;;;;;16.98;5.10;;;;;;;;;;5035279;28;20045;-91
2022/05/10 06:12:01;;;;;;;15.45;5.50;;;;;;;;;;5033699;28;20431;-92
2022/05/10 06:14:29;;;;;;;9.40;4.32;;;;;;;;;;5034418;28;20140;-92
2022/05/10 06:16:57;;;;;;;13.95;4.30;;;;;;;;;;5035209;28;20106;-92
2022/05/10 06:19:27;;;;;;;14.57;4.80;;;;;;;;;;5035149;28;20055;-92
2022/05/10 06:21:55;;;;;;;18.73;4.13;;;;;;;;;;5034958;28;20053;-92
2022/05/10 06:24:29;;;;;;;11.40;4.27;;;;;;;;;;5051066;28;20071;-93
2022/05/10 06:26:56;;;;;;;12.50;4.03;;;;;;;;;;5051235;28;20049;-93
2022/05/10 06:29:23;;;;;;;11.75;4.18;;;;;;;;;;5050531;28;20106;-92
2022/05/10 06:31:51;;;;;;;16.90;5.15;;;;;;;;;;5031277;28;20050;-92
2022/05/10 06:34:19;;;;;;;20.42;4.72;;;;;;;;;;5030720;28;20156;-92
2022/05/10 06:36:46;;;;;;;25.02;5.47;;;;;;;;;;5034210;28;20134;-92
2022/05/10 06:39:15;;;;;;;15.75;4.45;;;;;;;;;;5034476;28;20417;-93
2022/05/10 06:41:45;;;;;;;10.57;4.40;;;;;;;;;;5051449;28;20049;-92
2022/05/10 06:44:12;;;;;;;11.75;4.30;;;;;;;;;;5051875;28;20445;-93
2022/05/10 06:46:41;;;;;;;16.13;4.50;;;;;;;;;;5033977;28;20083;-91
2022/05/10 06:49:09;;;;;;;13.63;4.35;;;;;;;;;;5034879;28;20045;-92
2022/05/10 06:51:40;;;;;;;24.00;4.43;;;;;;;;;;5034303;28;20057;-92
2022/05/10 06:54:08;;;;;;;10.23;4.57;;;;;;;;;;5034088;28;20068;-93
2022/05/10 06:56:35;;;;;;;14.15;4.30;;;;;;;;;;5034919;28;20057;-92
2022/05/10 06:59:04;;;;;;;12.07;3.63;;;;;;;;;;5034459;28;20482;-92
2022/05/10 07:01:31;;;;;;;15.32;4.20;;;;;;;;;;5041597;28;20448;-92
2022/05/10 07:04:02;;;;;;;13.98;4.25;;;;;;;;;;5050090;28;20055;-92
2022/05/10 07:06:30;;;;;;;14.40;5.05;;;;;;;;;;5051568;28;20489;-92
2022/05/10 07:08:57;;;;;;;13.32;4.65;;;;;;;;;;5051213;28;20060;-92
2022/05/10 07:11:24;;;;;;;14.48;4.78;;;;;;;;;;5038611;28;20044;-92
2022/05/10 07:13:52;;;;;;;14.13;3.95;;;;;;;;;;5034938;28;20053;-92
2022/05/10 07:16:19;;;;;;;7.20;3.53;;;;;;;;;;5034691;28;20118;-93
2022/05/10 07:18:46;;;;;;;10.90;3.90;;;;;;;;;;5034573;28;20064;-93
2022/05/10 07:21:13;;;;;;;14.57;3.67;;;;;;;;;;5034720;28;20071;-92
2022/05/10 07:23:41;;;;;;;14.15;4.00;;;;;;;;;;5035501;28;20111;-94
2022/05/10 07:26:08;;;;;;;27.40;4.60;;;;;;;;;;5038258;28;20045;-93
2022/05/10 07:28:35;;;;;;;12.32;3.58;;;;;;;;;;5039884;28;20045;-92
2022/05/10 07:31:02;;;;;;;12.98;3.95;;;;;;;;;;5037720;28;20064;-92
2022/05/10 07:33:32;;;;;;;12.20;3.70;;;;;;;;;;5039089;28;20053;-92
2022/05/10 07:38:45;;;;;;;20.02;4.15;;;;;;;;;;5055822;28;20048;-92
2022/05/10 07:41:12;;;;;;;45.63;7.28;;;;;;;;;;5058829;28;20029;-92
2022/05/10 07:43:40;;;;;;;9.38;3.63;;;;;;;;;;5056978;28;20093;-92
2022/05/10 07:46:07;;;;;;;9.57;3.20;;;;;;;;;;5053193;28;20056;-93
2022/05/10 07:48:35;;;;;;;12.68;3.40;;;;;;;;;;5038338;28;20040;-92
2022/05/10 07:51:02;;;;;;;8.88;3.03;;;;;;;;;;5054339;28;20048;-92
2022/05/10 07:53:35;;;;;;;11.38;3.88;;;;;;;;;;5036517;28;20056;-92
2022/05/10 07:56:03;;;;;;;9.13;3.53;;;;;;;;;;5036318;28;20064;-92
2022/05/10 07:58:31;;;;;;;12.10;3.80;;;;;;;;;;5051865;28;20132;-91
2022/05/10 08:00:59;;;;;;;6.88;3.42;;;;;;;;;;5051820;28;20075;-92
2022/05/10 08:03:27;;;;;;;12.13;3.85;;;;;;;;;;5035861;28;20640;-93
2022/05/10 08:05:59;;;;;;;7.90;3.35;;;;;;;;;;5035901;28;20056;-92
2022/05/10 08:08:27;;;;;;;16.38;4.22;;;;;;;;;;5036473;28;20048;-92
2022/05/10 08:11:02;;;;;;;12.73;3.67;;;;;;;;;;5037873;28;20065;-93
2022/05/10 08:13:32;;;;;;;11.18;3.65;;;;;;;;;;5036622;28;20056;-93
2022/05/10 08:16:00;;;;;;;52.88;5.65;;;;;;;;;;5036053;28;20084;-93
2022/05/10 08:18:28;;;;;;;13.02;3.30;;;;;;;;;;5035942;28;20460;-93
2022/05/10 08:20:57;;;;;;;20.90;4.07;;;;;;;;;;5036045;28;20119;-92
2022/05/10 08:23:28;;;;;;;11.15;3.35;;;;;;;;;;5035784;28;20049;-92
2022/05/10 08:26:02;;;;;;;6.45;3.28;;;;;;;;;;5037942;28;20064;-93
2022/05/10 08:29:02;;;;;;;11.68;4.97;;;;;;;;;;5055420;28;20124;-94
2022/05/10 08:31:29;;;;;;;12.20;3.80;;;;;;;;;;5037941;28;20048;-94
2022/05/10 08:34:03;;;;;;;9.18;3.50;;;;;;;;;;5037450;28;20049;-91
2022/05/10 08:36:41;;;;;;;10.40;4.63;;;;;;;;;;5053507;28;20440;-93
2022/05/10 08:39:08;;;;;;;10.27;3.30;;;;;;;;;;5036651;28;20053;-94
2022/05/10 08:41:42;;;;;;;11.88;3.60;;;;;;;;;;5037818;28;20057;-94
2022/05/10 08:44:44;;;;;;;16.85;3.75;;;;;;;;;;5045149;28;20049;-93
2022/05/10 08:47:16;;;;;;;6.55;3.60;;;;;;;;;;4967349;28;20122;-94
2022/05/10 08:50:04;;;;;;;23.55;4.07;;;;;;;;;;5044873;28;20053;-93
2022/05/10 08:53:14;;;;;;;10.25;2.92;;;;;;;;;;5055152;28;20060;-94
2022/05/10 08:55:43;;;;;;;12.20;3.88;;;;;;;;;;5037982;28;20466;-94
2022/05/10 08:58:13;;;;;;;11.15;3.60;;;;;;;;;;5034675;28;20057;-94
2022/05/10 09:00:47;;;;;;;6.85;3.22;;;;;;;;;;5049731;28;20046;-93
2022/05/10 09:03:47;;;;;;;8.38;3.28;;;;;;;;;;5061524;28;20056;-95
2022/05/10 09:06:31;;;;;;;11.25;3.13;;;;;;;;;;5043386;28;20427;-93
2022/05/10 09:09:04;;;;;;;26.42;3.92;;;;;;;;;;5042795;28;20048;-94
2022/05/10 09:12:17;;;;;;;20.85;3.53;;;;;;;;;;5044730;28;20137;-93
2022/05/10 09:14:54;;;;;;;7.88;3.05;;;;;;;;;;5057951;28;20053;-93
2022/05/10 09:17:23;;;;;;;10.07;3.05;;;;;;;;;;5052856;28;20118;-93
2022/05/10 09:19:51;;;;;;;7.03;3.03;;;;;;;;;;5035954;28;20443;-92
2022/05/10 09:22:57;;;;;;;13.43;3.38;;;;;;;;;;5038737;28;20056;-93
2022/05/10 09:25:39;;;;;;;14.30;3.30;;;;;;;;;;5038217;28;20049;-93
2022/05/10 09:28:34;;;;;;;7.85;2.80;;;;;;;;;;5044188;28;20151;-94
2022/05/10 09:34:46;;;;;;;7.40;3.08;;;;;;;;;;5056447;28;20103;-92
2022/05/10 09:37:26;;;;;;;20.58;3.45;;;;;;;;;;5037348;28;20060;-91
2022/05/10 09:40:05;;;;;;;17.80;3.30;;;;;;;;;;5040302;28;20114;-93
2022/05/10 09:42:35;;;;;;;7.45;2.60;;;;;;;;;;5037230;28;20048;-92
2022/05/10 09:45:08;;;;;;;5.60;2.85;;;;;;;;;;5040092;28;20544;-92
2022/05/10 09:47:39;;;;;;;7.68;2.40;;;;;;;;;;5045931;28;20056;-93
2022/05/10 09:50:30;;;;;;;11.07;2.67;;;;;;;;;;5029557;28;20049;-91
2022/05/10 09:53:08;;;;;;;15.98;3.30;;;;;;;;;;5028958;28;20132;-92
2022/05/10 09:55:57;;;;;;;11.27;3.30;;;;;;;;;;5041162;28;20041;-91
2022/05/10 09:58:28;;;;;;;8.02;2.70;;;;;;;;;;5028796;28;20057;-91
2022/05/10 10:01:15;;;;;;;18.35;3.78;;;;;;;;;;5029553;28;20084;-92
2022/05/10 10:03:49;;;;;;;7.63;2.85;;;;;;;;;;5032909;28;20045;-91
2022/05/10 10:15:44;;;;;;;10.07;3.30;;;;;;;;;;4989096;28;20147;-93
2022/05/10 10:18:41;;;;;;;14.45;2.55;;;;;;;;;;4988714;28;20058;-91
2022/05/10 10:21:34;;;;;;;46.63;5.15;;;;;;;;;;4987385;28;20058;-88
2022/05/10 10:24:04;;;;;;;7.85;2.85;;;;;;;;;;4978202;28;20513;-92
2022/05/10 10:26:41;;;;;;;17.17;2.95;;;;;;;;;;4981353;28;20386;-92
2022/05/10 10:29:24;;;;;;;12.05;3.83;;;;;;;;;;4976045;28;20121;-92
2022/05/10 10:31:55;;;;;;;19.45;3.20;;;;;;;;;;4982234;28;20046;-91
2022/05/10 10:34:38;;;;;;;30.27;4.28;;;;;;;;;;4994764;28;20075;-93
2022/05/10 10:37:26;;;;;;;8.90;3.17;;;;;;;;;;4974265;22;20497;-90
2022/05/10 10:39:56;;;;;;;34.72;4.90;;;;;;;;;;5008574;28;20059;-92
2022/05/10 10:42:34;;;;;;;8.40;3.10;;;;;;;;;;5010592;28;20056;-92
2022/05/10 10:45:04;;;;;;;8.65;2.85;;;;;;;;;;5013650;28;20057;-92
2022/05/10 10:47:36;;;;;;;;;;;;;;;;;;5003152;28;20069;-92
2022/05/10 10:50:04;;;;;;;16.23;3.20;;;;;;;;;;5030022;28;19975;-93
2022/05/10 10:52:33;;;;;;;7.07;2.95;;;;;;;;;;5013703;28;20057;-91
2022/05/10 10:55:05;;;;;;;8.93;3.22;;;;;;;;;;5013355;28;20144;-92
2022/05/10 10:58:04;;;;;;;;;;;;;;;;;;;;;
2022/05/10 11:01:03;;;;;;;6.53;3.03;;;;;;;;;;5016388;28;20489;-92
2022/05/10 11:03:45;;;;;;;9.73;3.85;;;;;;;;;;5001380;28;20054;-93
2022/05/10 11:06:18;;;;;;;6.32;3.28;;;;;;;;;;5003275;28;20522;-93
2022/05/10 11:09:00;;;;;;;13.75;3.28;;;;;;;;;;5015570;28;20049;-93
2022/05/10 11:11:42;;;;;;;26.30;4.70;;;;;;;;;;5015090;28;20070;-93
2022/05/10 11:14:30;;;;;;;17.98;3.65;;;;;;;;;;5015456;28;20120;-94
2022/05/10 11:17:03;;;;;;;9.13;3.13;;;;;;;;;;5016880;28;20116;-93
2022/05/10 11:20:02;;;;;;;12.90;3.05;;;;;;;;;;4999056;28;20050;-93
2022/05/10 11:22:47;;;;;;;;;;;;;;;;;;4938746;28;20094;-94
2022/05/10 11:25:20;;;;;;;29.38;3.88;;;;;;;;;;4999526;28;20008;-93
2022/05/10 11:35:16;;;;;;;14.07;3.38;;;;;;;;;;5015277;28;20138;-93
2022/05/10 11:37:51;;;;;;;13.82;3.50;;;;;;;;;;4993949;28;20061;-93
2022/05/10 11:41:06;;;;;;;25.60;5.18;;;;;;;;;;4995000;28;20053;-92
2022/05/10 11:43:36;;;;;;;18.52;5.65;;;;;;;;;;4974833;28;20046;-92
2022/05/10 11:46:13;;;;;;;14.10;3.38;;;;;;;;;;5011216;28;20054;-92
2022/05/10 11:49:02;;;;;;;8.70;3.25;;;;;;;;;;4998681;28;20056;-93
2022/05/10 11:52:18;;;;;;;52.80;6.07;;;;;;;;;;5015382;28;20042;-93
2022/05/10 11:55:18;;;;;;;11.63;3.50;;;;;;;;;;4989197;28;20057;-93
2022/05/10 11:57:45;;;;;;;6.47;3.30;;;;;;;;;;4995018;28;20404;-93
2022/05/10 12:00:41;;;;;;;7.78;2.95;;;;;;;;;;5002334;28;20109;-93
2022/05/10 12:03:11;;;;;;;6.97;3.40;;;;;;;;;;4997445;28;20084;-93
2022/05/10 12:05:41;;;;;;;10.48;3.25;;;;;;;;;;4996600;28;20050;-92
2022/05/10 12:08:16;;;;;;;8.18;3.42;;;;;;;;;;5010244;28;20054;-95
2022/05/10 12:23:47;;;;;;;7.30;4.03;;;;;;;;;;5009823;28;20068;-93
2022/05/10 12:26:47;;;;;;;10.27;3.78;;;;;;;;;;4988148;28;20065;-92
2022/05/10 12:29:43;;;;;;;16.45;3.90;;;;;;;;;;5013204;28;20069;-93
2022/05/10 12:32:23;;;;;;;12.27;4.63;;;;;;;;;;5012669;28;20455;-92
2022/05/10 12:35:10;;;;;;;18.77;4.18;;;;;;;;;;4996018;28;20475;-93
2022/05/10 12:38:01;;;;;;;11.45;4.05;;;;;;;;;;5001588;28;20058;-93
2022/05/10 12:40:52;;;;;;;11.50;5.32;;;;;;;;;;4984225;28;20423;-93
2022/05/10 12:47:16;;;;;;;7.38;4.43;;;;;;;;;;5005668;28;20053;-92
2022/05/10 12:50:46;;;;;;;11.32;4.18;;;;;;;;;;4997923;28;20049;-93
2022/05/10 12:53:32;;;;;;;7.78;4.15;;;;;;;;;;4935266;29;20484;-92
2022/05/10 12:56:23;;;;;;;9.02;4.38;;;;;;;;;;4928220;29;20055;-92
2022/05/10 12:59:15;;;;;;;10.35;4.15;;;;;;;;;;4998865;28;20446;-92
2022/05/10 13:01:43;;;;;;;4.75;3.50;;;;;;;;;;4975568;28;20057;-92
2022/05/10 13:04:14;;;;;;;11.73;4.57;;;;;;;;;;5006558;28;20138;-92
2022/05/10 13:06:42;;;;;;;9.77;3.80;;;;;;;;;;5001100;28;20053;-93
2022/05/10 13:09:15;;;;;;;8.90;4.15;;;;;;;;;;5010504;28;20049;-92
2022/05/10 13:11:47;;;;;;;14.63;4.47;;;;;;;;;;5011334;28;20483;-92
2022/05/10 13:14:17;;;;;;;10.93;4.68;;;;;;;;;;4995440;28;20046;-92
2022/05/10 13:16:48;;;;;;;10.07;4.20;;;;;;;;;;5013541;28;20064;-93
2022/05/10 13:19:21;;;;;;;15.10;4.55;;;;;;;;;;4995249;28;20054;-93
2022/05/10 13:22:06;;;;;;;12.63;4.57;;;;;;;;;;4981948;28;20073;-93
2022/05/10 13:24:34;;;;;;;13.40;4.28;;;;;;;;;;4994364;28;20110;-92
2022/05/10 13:27:02;;;;;;;8.35;3.72;;;;;;;;;;4993454;28;20057;-92
2022/05/10 13:29:51;;;;;;;19.85;4.38;;;;;;;;;;5007819;28;20834;-92
2022/05/10 13:32:28;;;;;;;9.98;4.50;;;;;;;;;;4994424;28;20052;-92
2022/05/10 13:34:55;;;;;;;;;;;;;;;;;;5016151;28;20065;-92
2022/05/10 13:37:29;;;;;;;9.02;4.45;;;;;;;;;;5022172;28;20030;-92
2022/05/10 13:39:59;;;;;;;7.03;4.38;;;;;;;;;;4999717;28;20144;-90
2022/05/10 13:42:26;;;;;;;11.32;3.83;;;;;;;;;;5014128;28;20057;-92
2022/05/10 13:44:54;;;;;;;7.93;4.40;;;;;;;;;;5006667;28;20069;-92
2022/05/10 13:47:32;;;;;;;7.82;3.92;;;;;;;;;;5016999;28;20058;-91
2022/05/10 13:50:24;;;;;;;11.57;4.22;;;;;;;;;;5018978;28;20131;-91
2022/05/10 13:53:07;;;;;;;12.20;4.43;;;;;;;;;;5004230;28;20064;-92
2022/05/10 13:55:37;;;;;;;9.25;4.75;;;;;;;;;;5007509;28;20053;-93
2022/05/10 13:58:07;;;;;;;10.27;4.55;;;;;;;;;;4994368;28;20060;-92
2022/05/10 14:00:42;;;;;;;7.90;4.43;;;;;;;;;;5006864;28;20057;-91
2022/05/10 14:03:18;;;;;;;10.77;4.25;;;;;;;;;;5020325;28;20053;-91
2022/05/10 14:05:46;;;;;;;8.10;4.20;;;;;;;;;;5013917;28;20120;-93
2022/05/10 14:08:17;;;;;;;15.73;4.68;;;;;;;;;;4996744;28;20509;-90
2022/05/10 14:11:08;;;;;;;9.98;5.03;;;;;;;;;;4999434;28;20054;-92
2022/05/10 14:13:54;;;;;;;6.90;4.82;;;;;;;;;;4987899;28;20049;-92
2022/05/10 14:16:32;;;;;;;13.40;5.03;;;;;;;;;;5011195;28;20056;-93
2022/05/10 14:19:07;;;;;;;28.95;5.28;;;;;;;;;;4990153;28;20050;-92
2022/05/10 14:21:43;;;;;;;7.65;4.45;;;;;;;;;;5002829;28;20046;-93
2022/05/10 14:24:12;;;;;;;14.05;5.22;;;;;;;;;;4993961;28;20053;-93
2022/05/10 14:26:41;;;;;;;7.15;4.13;;;;;;;;;;4993940;28;20057;-93
2022/05/10 14:29:20;;;;;;;15.43;4.78;;;;;;;;;;5010104;28;20046;-92
2022/05/10 14:32:08;;;;;;;7.65;4.65;;;;;;;;;;5009496;28;20046;-92
2022/05/10 14:34:46;;;;;;;13.13;5.13;;;;;;;;;;5008781;28;20104;-91
2022/05/10 14:37:26;;;;;;;7.00;4.20;;;;;;;;;;5009369;28;20062;-93
2022/05/10 14:39:54;;;;;;;5.35;4.30;;;;;;;;;;4993385;28;20078;-92
2022/05/10 14:45:50;;;;;;;19.95;5.25;;;;;;;;;;4953614;28;20051;-93
2022/05/10 14:48:23;;;;;;;14.45;4.93;;;;;;;;;;4954123;28;20146;-92
2022/05/10 14:51:09;;;;;;;9.75;4.70;;;;;;;;;;4952466;28;20043;-92
2022/05/10 14:53:54;;;;;;;11.88;4.95;;;;;;;;;;4955519;28;20058;-91
2022/05/10 14:56:22;;;;;;;10.65;4.78;;;;;;;;;;4960666;28;20174;-94
2022/05/10 14:58:51;;;;;;;13.13;4.65;;;;;;;;;;4969762;28;20495;-92
2022/05/10 15:01:29;;;;;;;8.43;4.53;;;;;;;;;;4954796;28;20137;-92
2022/05/10 15:04:09;;;;;;;9.10;4.57;;;;;;;;;;4953883;28;20050;-92
2022/05/10 15:06:37;;;;;;;14.57;5.00;;;;;;;;;;4953928;28;20086;-92
2022/05/10 15:15:45;;;;;;;6.07;4.78;;;;;;;;;;4942100;28;20084;-92
2022/05/10 15:21:08;;;;;;;23.23;6.38;;;;;;;;;;4970066;28;20061;-92
2022/05/10 15:23:36;;;;;;;10.57;5.10;;;;;;;;;;4986842;28;20042;-92
2022/05/10 15:26:05;;;;;;;8.40;5.03;;;;;;;;;;5004300;28;20054;-91
2022/05/10 15:28:32;;;;;;;15.30;4.82;;;;;;;;;;5003266;28;20095;-92
2022/05/10 15:31:00;;;;;;;13.50;4.95;;;;;;;;;;5008633;28;20081;-91
2022/05/10 15:33:27;;;;;;;13.15;4.97;;;;;;;;;;5021765;28;20119;-91
2022/05/10 15:43:25;;;;;;;15.95;4.68;;;;;;;;;;5008555;28;20053;-91
2022/05/10 15:46:19;;;;;;;15.60;5.28;;;;;;;;;;5013326;28;20064;-91
2022/05/10 15:48:46;;;;;;;9.65;4.68;;;;;;;;;;5012934;28;20450;-91
2022/05/10 15:51:43;;;;;;;9.45;5.20;;;;;;;;;;5011987;28;20522;-92
2022/05/10 15:54:41;;;;;;;10.68;4.68;;;;;;;;;;5013933;28;20057;-90
2022/05/10 16:01:00;;;;;;;;;;;;;;;;;;;;;
2022/05/10 16:17:20;;;;;;;13.70;5.20;;;;;;;;;;4829501;29;20490;-90
2022/05/10 16:20:34;;;;;;;;;;;;;;;;;;;;;
2022/05/10 16:23:38;;;;;;;19.92;5.35;;;;;;;;;;4817165;29;20104;-91
2022/05/10 16:29:55;;;;;;;24.45;7.07;;;;;;;;;;4834341;29;20124;-91
2022/05/10 16:32:24;;;;;;;15.15;5.82;;;;;;;;;;4860851;29;20049;-90
2022/05/10 16:34:51;;;;;;;23.98;7.45;;;;;;;;;;4860572;29;20076;-90
2022/05/10 16:37:19;;;;;;;41.88;11.73;;;;;;;;;;4863651;29;20045;-91
2022/05/10 16:40:06;;;;;;;52.65;10.15;;;;;;;;;;4852549;29;20052;-93
2022/05/10 16:52:46;;;;;;;19.95;10.82;;;;;;;;;;5019020;28;20042;-91
2022/05/10 16:55:37;;;;;;;27.13;11.70;;;;;;;;;;5015800;28;20041;-90
2022/05/10 16:58:05;;;;;;;34.75;11.63;;;;;;;;;;5002620;28;20766;-90
2022/05/10 17:00:35;;;;;;;20.20;11.65;;;;;;;;;;5014147;28;20052;-89
2022/05/10 17:03:04;;;;;;;18.80;11.68;;;;;;;;;;5014185;28;20131;-89